Time;durP1;ratioP1;P1;durP2;ratioP2;P2;SDS_P1;SDS_P2;PMS_P1;PMS_P2;Temp;Humidity;BMP_temperature;BMP_pressure;BME280_temperature;BME280_humidity;BME280_pressure;Samples;Min_cycle;Max_cycle;Signal;HPM_P1;HPM_P2
2023/05/19 00:02:14;;;;;;;13.45;7.10;;;;;;;;;;10042386;28;20404;-73
2023/05/19 00:07:10;;;;;;;9.55;5.78;;;;;;;;;;10041712;28;20046;-71
2023/05/19 00:12:06;;;;;;;8.88;5.22;;;;;;;;;;10042931;28;20053;-72
2023/05/19 00:17:01;;;;;;;12.05;5.72;;;;;;;;;;10047510;28;20449;-72
2023/05/19 00:21:56;;;;;;;13.10;4.90;;;;;;;;;;10039267;28;20493;-72
2023/05/19 00:26:50;;;;;;;4.95;4.45;;;;;;;;;;10035126;28;20564;-72
2023/05/19 00:31:43;;;;;;;7.35;5.07;;;;;;;;;;10037395;28;20053;-72
2023/05/19 00:36:36;;;;;;;12.90;5.85;;;;;;;;;;10039299;28;20041;-72
2023/05/19 00:41:30;;;;;;;20.23;9.18;;;;;;;;;;10036697;28;20069;-73
2023/05/19 00:46:24;;;;;;;15.82;9.40;;;;;;;;;;10035763;28;20481;-73
2023/05/19 00:51:17;;;;;;;18.52;8.00;;;;;;;;;;10041938;28;20054;-72
2023/05/19 00:56:10;;;;;;;19.50;9.30;;;;;;;;;;10031417;28;20050;-72
2023/05/19 01:01:06;;;;;;;12.57;7.03;;;;;;;;;;10038559;28;20076;-72
2023/05/19 01:06:03;;;;;;;12.88;7.03;;;;;;;;;;10035170;28;20441;-73
2023/05/19 01:10:57;;;;;;;8.38;5.80;;;;;;;;;;10043857;28;20497;-72
2023/05/19 01:16:00;;;;;;;16.83;7.65;;;;;;;;;;10058648;28;20080;-72
2023/05/19 01:21:30;;;;;;;12.57;6.40;;;;;;;;;;10045313;28;20560;-72
2023/05/19 01:27:01;;;;;;;16.90;7.22;;;;;;;;;;10036466;28;20488;-73
2023/05/19 01:31:54;;;;;;;10.25;6.68;;;;;;;;;;10006711;28;20096;-73
2023/05/19 01:36:48;;;;;;;8.20;6.00;;;;;;;;;;10037036;28;20057;-72
2023/05/19 01:41:43;;;;;;;10.38;6.72;;;;;;;;;;10019747;28;20061;-72
2023/05/19 01:46:37;;;;;;;11.32;7.22;;;;;;;;;;10029983;28;20448;-72
2023/05/19 01:51:31;;;;;;;8.93;6.88;;;;;;;;;;10016083;28;20493;-72
2023/05/19 01:56:38;;;;;;;15.63;8.43;;;;;;;;;;10039425;28;20504;-72
2023/05/19 02:01:53;;;;;;;15.45;6.85;;;;;;;;;;10028497;28;20069;-72
2023/05/19 02:07:09;;;;;;;8.27;7.47;;;;;;;;;;10042793;28;20132;-73
2023/05/19 02:12:15;;;;;;;9.77;8.05;;;;;;;;;;10027828;28;20073;-72
2023/05/19 02:17:10;;;;;;;11.70;7.03;;;;;;;;;;10038165;28;20492;-72
2023/05/19 02:22:04;;;;;;;12.32;7.78;;;;;;;;;;10012057;28;20080;-72
2023/05/19 02:26:58;;;;;;;12.23;7.60;;;;;;;;;;10038270;28;20057;-72
2023/05/19 02:31:51;;;;;;;11.90;7.75;;;;;;;;;;10032558;28;21093;-72
2023/05/19 02:36:44;;;;;;;10.07;7.78;;;;;;;;;;10031965;28;20054;-72
2023/05/19 02:41:37;;;;;;;7.00;6.40;;;;;;;;;;10035926;28;20041;-73
2023/05/19 02:46:31;;;;;;;9.27;4.38;;;;;;;;;;10033890;28;20133;-72
2023/05/19 02:51:24;;;;;;;5.28;4.60;;;;;;;;;;10034710;28;20055;-69
2023/05/19 02:56:17;;;;;;;8.73;4.82;;;;;;;;;;10032350;28;20046;-72
2023/05/19 03:01:11;;;;;;;6.40;5.65;;;;;;;;;;10036953;28;20409;-72
2023/05/19 03:06:09;;;;;;;8.93;5.40;;;;;;;;;;10013431;28;20053;-72
2023/05/19 03:11:05;;;;;;;9.15;5.05;;;;;;;;;;10032544;28;20128;-72
2023/05/19 03:15:58;;;;;;;7.38;5.75;;;;;;;;;;10026337;28;20461;-72
2023/05/19 03:20:52;;;;;;;8.15;5.18;;;;;;;;;;10028471;28;20076;-73
2023/05/19 03:25:46;;;;;;;5.45;4.95;;;;;;;;;;10036546;28;20057;-72
2023/05/19 03:30:40;;;;;;;7.25;5.63;;;;;;;;;;10041137;28;20136;-72
2023/05/19 03:35:38;;;;;;;9.43;5.65;;;;;;;;;;10029540;28;20072;-72
2023/05/19 03:40:31;;;;;;;9.50;5.68;;;;;;;;;;10024352;28;20516;-73
2023/05/19 03:45:29;;;;;;;16.43;5.83;;;;;;;;;;10043019;28;20053;-73
2023/05/19 03:50:26;;;;;;;8.30;6.03;;;;;;;;;;10037945;28;20315;-72
2023/05/19 03:55:28;;;;;;;9.38;6.03;;;;;;;;;;10036951;28;20549;-72
2023/05/19 04:00:22;;;;;;;8.13;7.03;;;;;;;;;;10042470;28;20060;-72
2023/05/19 04:05:16;;;;;;;10.65;6.75;;;;;;;;;;10036240;28;20042;-72
2023/05/19 04:10:11;;;;;;;17.70;7.28;;;;;;;;;;10039200;28;20067;-72
2023/05/19 04:15:10;;;;;;;16.83;8.60;;;;;;;;;;10031761;28;20054;-72
2023/05/19 04:20:06;;;;;;;9.07;8.25;;;;;;;;;;10025941;28;20038;-72
2023/05/19 04:25:00;;;;;;;8.65;7.85;;;;;;;;;;10036805;28;20046;-72
2023/05/19 04:29:53;;;;;;;8.98;7.90;;;;;;;;;;10049700;28;20507;-72
2023/05/19 04:34:48;;;;;;;8.88;7.97;;;;;;;;;;10037201;28;20099;-72
2023/05/19 04:39:47;;;;;;;;;;;;;;;;;;10061458;28;20045;-70
2023/05/19 04:44:42;;;;;;;9.93;8.93;;;;;;;;;;10035198;28;20016;-72
2023/05/19 04:49:38;;;;;;;12.88;9.05;;;;;;;;;;10039862;28;20049;-72
2023/05/19 04:54:33;;;;;;;14.40;8.48;;;;;;;;;;10075339;28;20060;-72
2023/05/19 04:59:26;;;;;;;10.05;7.75;;;;;;;;;;10044731;28;20116;-71
2023/05/19 05:04:20;;;;;;;9.20;6.90;;;;;;;;;;10051038;28;20050;-72
2023/05/19 05:09:15;;;;;;;8.02;6.95;;;;;;;;;;10050174;28;20046;-72
2023/05/19 05:14:08;;;;;;;8.13;7.32;;;;;;;;;;10055235;28;20052;-72
2023/05/19 05:19:03;;;;;;;12.95;6.22;;;;;;;;;;10036080;28;20457;-72
2023/05/19 05:23:57;;;;;;;8.43;4.93;;;;;;;;;;10032568;28;20053;-72
2023/05/19 05:28:56;;;;;;;5.25;4.75;;;;;;;;;;10032307;28;20524;-73
2023/05/19 05:33:50;;;;;;;5.65;4.82;;;;;;;;;;10021805;28;20046;-67
2023/05/19 05:38:47;;;;;;;7.28;5.85;;;;;;;;;;10028834;28;20076;-71
2023/05/19 05:43:41;;;;;;;6.30;4.93;;;;;;;;;;10024939;28;20101;-70
2023/05/19 05:48:35;;;;;;;6.10;4.70;;;;;;;;;;10007825;28;20085;-70
2023/05/19 05:53:31;;;;;;;7.53;5.82;;;;;;;;;;10014536;28;20054;-70
2023/05/19 05:58:28;;;;;;;5.90;4.80;;;;;;;;;;10036601;28;20053;-71
2023/05/19 06:03:23;;;;;;;9.82;5.72;;;;;;;;;;10032424;28;20042;-71
2023/05/19 06:08:17;;;;;;;10.60;5.88;;;;;;;;;;10036176;28;20038;-72
2023/05/19 06:13:12;;;;;;;6.78;6.13;;;;;;;;;;10035785;28;20045;-69
2023/05/19 06:18:06;;;;;;;7.55;6.03;;;;;;;;;;10031250;28;20073;-65
2023/05/19 06:22:59;;;;;;;9.63;7.60;;;;;;;;;;10029030;28;20054;-67
2023/05/19 06:27:53;;;;;;;10.40;6.90;;;;;;;;;;10044187;28;20408;-68
2023/05/19 06:32:48;;;;;;;7.78;5.65;;;;;;;;;;10041217;28;20038;-69
2023/05/19 06:37:41;;;;;;;6.18;5.22;;;;;;;;;;10034856;28;20484;-70
2023/05/19 06:42:35;;;;;;;4.22;3.78;;;;;;;;;;10024982;28;20417;-69
2023/05/19 06:47:41;;;;;;;4.63;4.10;;;;;;;;;;10037033;28;20381;-69
2023/05/19 06:52:34;;;;;;;7.22;5.43;;;;;;;;;;10029235;28;20092;-69
2023/05/19 06:57:28;;;;;;;7.32;5.53;;;;;;;;;;10027853;28;20060;-69
2023/05/19 07:02:22;;;;;;;5.80;5.28;;;;;;;;;;10032603;28;20144;-69
2023/05/19 07:07:16;;;;;;;5.18;4.63;;;;;;;;;;10030384;28;20492;-70
2023/05/19 07:12:09;;;;;;;6.10;4.43;;;;;;;;;;10039986;28;20042;-70
2023/05/19 07:17:03;;;;;;;6.80;5.10;;;;;;;;;;10031909;28;20417;-70
2023/05/19 07:22:02;;;;;;;5.28;4.78;;;;;;;;;;10026277;28;20057;-69
2023/05/19 07:26:54;;;;;;;4.85;3.60;;;;;;;;;;10025108;28;20060;-70
2023/05/19 07:31:47;;;;;;;5.47;3.17;;;;;;;;;;10025085;28;20054;-69
2023/05/19 07:36:41;;;;;;;3.53;3.05;;;;;;;;;;10051874;28;20054;-71
2023/05/19 07:41:35;;;;;;;4.13;3.65;;;;;;;;;;10038606;28;20192;-72
2023/05/19 07:46:29;;;;;;;5.68;4.25;;;;;;;;;;10045585;28;20053;-70
2023/05/19 07:51:22;;;;;;;4.32;3.92;;;;;;;;;;10029204;28;20054;-72
2023/05/19 07:56:15;;;;;;;4.55;3.67;;;;;;;;;;10038724;28;20145;-71
2023/05/19 08:01:10;;;;;;;4.85;3.70;;;;;;;;;;10035907;28;20046;-71
2023/05/19 08:06:04;;;;;;;5.22;3.40;;;;;;;;;;10022471;28;20788;-71
2023/05/19 08:11:02;;;;;;;6.82;3.97;;;;;;;;;;10049121;28;20103;-71
2023/05/19 08:15:58;;;;;;;8.20;4.93;;;;;;;;;;10045235;28;20058;-72
2023/05/19 08:20:52;;;;;;;6.88;5.32;;;;;;;;;;10050635;28;20124;-70
2023/05/19 08:25:44;;;;;;;7.00;5.75;;;;;;;;;;10054389;28;20077;-71
2023/05/19 08:30:38;;;;;;;10.60;4.82;;;;;;;;;;10057925;28;20045;-68
2023/05/19 08:35:31;;;;;;;9.50;5.63;;;;;;;;;;10056462;28;20390;-73
2023/05/19 08:40:26;;;;;;;8.82;6.85;;;;;;;;;;10025670;28;20529;-71
2023/05/19 08:45:20;;;;;;;10.65;8.05;;;;;;;;;;10041861;28;20038;-72
2023/05/19 08:50:16;;;;;;;10.80;7.35;;;;;;;;;;10031740;28;20099;-70
2023/05/19 08:55:37;;;;;;;12.32;9.15;;;;;;;;;;10034464;28;20057;-71
2023/05/19 09:00:30;;;;;;;11.48;8.50;;;;;;;;;;10037329;28;20555;-71
2023/05/19 09:05:24;;;;;;;9.75;8.35;;;;;;;;;;10039258;28;20192;-71
2023/05/19 09:10:18;;;;;;;10.00;8.30;;;;;;;;;;10031226;28;20053;-71
2023/05/19 09:15:11;;;;;;;11.18;8.40;;;;;;;;;;10039900;28;20052;-72
2023/05/19 09:20:10;;;;;;;14.35;9.23;;;;;;;;;;10034037;28;20049;-71
2023/05/19 09:25:05;;;;;;;11.40;9.63;;;;;;;;;;10033635;28;20063;-71
2023/05/19 09:30:07;;;;;;;14.85;11.27;;;;;;;;;;10041273;28;20038;-73
2023/05/19 09:35:03;;;;;;;20.40;12.45;;;;;;;;;;10037166;28;20050;-72
2023/05/19 09:39:57;;;;;;;13.05;11.65;;;;;;;;;;10031689;28;20060;-71
2023/05/19 09:44:58;;;;;;;14.65;11.80;;;;;;;;;;10044223;28;20060;-72
2023/05/19 09:49:53;;;;;;;14.63;12.13;;;;;;;;;;10033133;28;20419;-71
2023/05/19 09:54:47;;;;;;;13.88;11.13;;;;;;;;;;10042023;28;20085;-72
2023/05/19 09:59:41;;;;;;;13.00;10.50;;;;;;;;;;10023478;28;20050;-72
2023/05/19 10:04:35;;;;;;;12.85;11.52;;;;;;;;;;10033741;28;20041;-71
2023/05/19 10:09:29;;;;;;;13.27;11.85;;;;;;;;;;10027001;28;20108;-72
2023/05/19 10:14:29;;;;;;;12.75;11.45;;;;;;;;;;10032769;28;20042;-72
2023/05/19 10:19:23;;;;;;;13.30;11.32;;;;;;;;;;10035937;28;20033;-72
2023/05/19 10:24:18;;;;;;;12.32;11.00;;;;;;;;;;10031751;28;20528;-72
2023/05/19 10:29:17;;;;;;;14.32;11.45;;;;;;;;;;10038625;28;20115;-72
2023/05/19 10:34:20;;;;;;;13.10;11.80;;;;;;;;;;10026499;28;20108;-71
2023/05/19 10:39:22;;;;;;;11.05;9.70;;;;;;;;;;10040315;28;20038;-72
2023/05/19 10:44:33;;;;;;;9.73;8.30;;;;;;;;;;10033587;28;20137;-71
2023/05/19 10:49:25;;;;;;;9.13;8.00;;;;;;;;;;10043230;28;20045;-72
2023/05/19 10:54:39;;;;;;;10.65;8.18;;;;;;;;;;10030056;28;20054;-72
2023/05/19 10:59:38;;;;;;;7.57;6.82;;;;;;;;;;10039041;28;20136;-72
2023/05/19 11:04:51;;;;;;;6.03;5.40;;;;;;;;;;10033388;28;20091;-72
2023/05/19 11:09:49;;;;;;;7.45;6.65;;;;;;;;;;10039641;28;20053;-71
2023/05/19 11:14:42;;;;;;;9.60;5.87;;;;;;;;;;9999375;28;20146;-72
2023/05/19 11:19:36;;;;;;;7.85;5.85;;;;;;;;;;10018638;28;20049;-71
2023/05/19 11:24:49;;;;;;;6.85;5.30;;;;;;;;;;10037449;28;20049;-70
2023/05/19 11:29:42;;;;;;;5.45;4.82;;;;;;;;;;10032445;28;20060;-71
2023/05/19 11:34:36;;;;;;;5.80;5.20;;;;;;;;;;10030843;28;20161;-70
2023/05/19 11:39:30;;;;;;;5.60;4.70;;;;;;;;;;10042260;28;20045;-69
2023/05/19 11:44:24;;;;;;;7.68;4.90;;;;;;;;;;10041858;28;20069;-70
2023/05/19 11:49:17;;;;;;;3.90;3.53;;;;;;;;;;10025960;28;20112;-69
2023/05/19 11:54:11;;;;;;;4.28;3.58;;;;;;;;;;10028134;28;20476;-70
2023/05/19 11:59:04;;;;;;;9.75;4.35;;;;;;;;;;10031597;28;20050;-70
2023/05/19 12:03:58;;;;;;;4.32;3.55;;;;;;;;;;10029702;28;20050;-69
2023/05/19 12:08:52;;;;;;;4.78;3.78;;;;;;;;;;10022577;28;20086;-69
2023/05/19 12:13:46;;;;;;;4.75;4.00;;;;;;;;;;10016615;28;20516;-67
2023/05/19 12:18:40;;;;;;;4.13;3.80;;;;;;;;;;10018913;28;20079;-67
2023/05/19 12:23:34;;;;;;;4.57;3.47;;;;;;;;;;10012985;28;20058;-68
2023/05/19 12:28:32;;;;;;;4.32;3.15;;;;;;;;;;10018558;28;20037;-68
2023/05/19 12:33:43;;;;;;;4.28;3.58;;;;;;;;;;10021703;28;20424;-69
2023/05/19 12:38:38;;;;;;;4.57;3.42;;;;;;;;;;10021805;28;20049;-69
2023/05/19 12:43:32;;;;;;;4.55;3.63;;;;;;;;;;10021458;28;20425;-70
2023/05/19 12:48:27;;;;;;;3.75;2.53;;;;;;;;;;10024774;28;20049;-69
2023/05/19 12:53:21;;;;;;;3.50;2.25;;;;;;;;;;10028186;28;20058;-68
2023/05/19 12:58:14;;;;;;;2.97;1.90;;;;;;;;;;10039546;28;20502;-69
2023/05/19 13:03:14;;;;;;;3.33;2.42;;;;;;;;;;10044616;28;20046;-68
2023/05/19 13:08:12;;;;;;;3.95;2.40;;;;;;;;;;10042371;28;20053;-70
2023/05/19 13:13:07;;;;;;;3.85;2.80;;;;;;;;;;10049309;28;20104;-69
2023/05/19 13:18:02;;;;;;;5.28;3.78;;;;;;;;;;10025913;28;20132;-70
2023/05/19 13:22:56;;;;;;;3.47;2.83;;;;;;;;;;10031264;28;20096;-69
2023/05/19 13:27:50;;;;;;;2.72;2.50;;;;;;;;;;10031810;28;20056;-68
2023/05/19 13:32:45;;;;;;;6.40;2.63;;;;;;;;;;10027701;28;20054;-68
2023/05/19 13:37:40;;;;;;;4.43;3.17;;;;;;;;;;10032503;28;20074;-68
2023/05/19 13:42:35;;;;;;;7.53;3.50;;;;;;;;;;10034883;28;20050;-68
2023/05/19 13:47:29;;;;;;;5.07;3.75;;;;;;;;;;10028028;28;20051;-69
2023/05/19 13:52:23;;;;;;;4.28;3.50;;;;;;;;;;10031983;28;20058;-68
2023/05/19 13:57:18;;;;;;;5.15;2.92;;;;;;;;;;10033772;28;20057;-67
2023/05/19 14:02:12;;;;;;;2.60;2.40;;;;;;;;;;10025965;28;20461;-69
2023/05/19 14:07:08;;;;;;;3.25;2.35;;;;;;;;;;10030699;28;20050;-67
2023/05/19 14:12:03;;;;;;;3.88;2.72;;;;;;;;;;10035544;28;20065;-69
2023/05/19 14:16:56;;;;;;;3.97;3.58;;;;;;;;;;10038570;28;20100;-68
2023/05/19 14:21:50;;;;;;;3.47;2.85;;;;;;;;;;10031855;28;20056;-68
2023/05/19 14:26:44;;;;;;;7.50;2.70;;;;;;;;;;10034983;28;20567;-69
2023/05/19 14:31:37;;;;;;;5.60;2.28;;;;;;;;;;10036203;28;20512;-68
2023/05/19 14:36:33;;;;;;;3.28;2.53;;;;;;;;;;10031469;28;20050;-68
2023/05/19 14:41:27;;;;;;;7.03;2.38;;;;;;;;;;10033919;28;20076;-68
2023/05/19 14:46:21;;;;;;;6.03;3.30;;;;;;;;;;10032237;28;20073;-69
2023/05/19 14:51:15;;;;;;;3.10;2.80;;;;;;;;;;10037658;28;20508;-69
2023/05/19 14:56:08;;;;;;;4.43;3.30;;;;;;;;;;10031600;28;20143;-69
2023/05/19 15:01:02;;;;;;;8.80;5.78;;;;;;;;;;10040536;28;20053;-69
2023/05/19 15:05:56;;;;;;;10.43;7.55;;;;;;;;;;10044112;28;20069;-68
2023/05/19 15:10:50;;;;;;;5.65;4.15;;;;;;;;;;10040539;28;20058;-68
2023/05/19 15:15:43;;;;;;;8.45;4.57;;;;;;;;;;10044951;28;20391;-68
2023/05/19 15:20:37;;;;;;;5.28;3.53;;;;;;;;;;10027348;28;20065;-67
2023/05/19 15:25:31;;;;;;;6.18;2.67;;;;;;;;;;10035057;28;20077;-68
2023/05/19 15:30:26;;;;;;;1.90;1.80;;;;;;;;;;10033395;28;20464;-68
2023/05/19 15:35:19;;;;;;;2.70;1.55;;;;;;;;;;10039645;28;20050;-68
2023/05/19 15:40:13;;;;;;;8.98;1.92;;;;;;;;;;10026383;28;20125;-67
2023/05/19 15:45:08;;;;;;;4.65;1.98;;;;;;;;;;10031660;28;20064;-67
2023/05/19 15:50:02;;;;;;;1.73;1.48;;;;;;;;;;10028130;28;20041;-67
2023/05/19 15:54:57;;;;;;;3.10;1.88;;;;;;;;;;10028655;28;20099;-66
2023/05/19 15:59:52;;;;;;;2.50;1.77;;;;;;;;;;10033640;28;20053;-68
2023/05/19 16:04:45;;;;;;;3.55;2.53;;;;;;;;;;10034168;28;20053;-67
2023/05/19 16:09:38;;;;;;;2.35;1.70;;;;;;;;;;10007211;28;20049;-68
2023/05/19 16:14:35;;;;;;;3.05;2.10;;;;;;;;;;10042750;28;20054;-67
2023/05/19 16:19:28;;;;;;;2.33;1.67;;;;;;;;;;10004443;28;20049;-67
2023/05/19 16:24:23;;;;;;;2.13;1.73;;;;;;;;;;10011191;28;20417;-66
2023/05/19 16:29:17;;;;;;;2.25;1.50;;;;;;;;;;10022974;28;20124;-65
2023/05/19 16:34:11;;;;;;;4.05;1.30;;;;;;;;;;10025665;28;20612;-65
2023/05/19 16:39:05;;;;;;;1.77;1.20;;;;;;;;;;10011207;28;20054;-66
2023/05/19 16:44:01;;;;;;;4.05;2.47;;;;;;;;;;10006356;28;20046;-68
2023/05/19 16:48:55;;;;;;;4.38;1.83;;;;;;;;;;10015938;28;20068;-67
2023/05/19 16:53:48;;;;;;;4.63;1.63;;;;;;;;;;10025526;28;20058;-67
2023/05/19 16:58:41;;;;;;;4.18;2.00;;;;;;;;;;10028475;28;20058;-68
2023/05/19 17:03:34;;;;;;;2.20;1.92;;;;;;;;;;10017980;28;20043;-67
2023/05/19 17:08:27;;;;;;;2.00;1.75;;;;;;;;;;10015009;28;20129;-69
2023/05/19 17:13:20;;;;;;;3.13;1.88;;;;;;;;;;10032644;28;20046;-68
2023/05/19 17:18:14;;;;;;;4.35;1.80;;;;;;;;;;10015832;28;20073;-69
2023/05/19 17:23:09;;;;;;;5.85;1.75;;;;;;;;;;10015754;28;20037;-69
2023/05/19 17:33:45;;;;;;;5.40;1.90;;;;;;;;;;9708785;24;20566;-65
2023/05/19 17:38:39;;;;;;;5.57;1.77;;;;;;;;;;9489885;30;20527;-64
2023/05/19 17:43:32;;;;;;;7.90;2.97;;;;;;;;;;9501317;30;20075;-65
2023/05/19 17:48:26;;;;;;;2.45;1.50;;;;;;;;;;9500933;30;20467;-65
2023/05/19 17:53:21;;;;;;;5.50;2.22;;;;;;;;;;9500970;30;20173;-66
2023/05/19 17:58:15;;;;;;;2.90;2.42;;;;;;;;;;9492485;30;20573;-65
2023/05/19 18:03:10;;;;;;;2.80;1.80;;;;;;;;;;9505502;30;20064;-65
2023/05/19 18:08:07;;;;;;;6.55;2.35;;;;;;;;;;9492457;30;20488;-64
2023/05/19 18:13:01;;;;;;;5.57;3.13;;;;;;;;;;9502163;30;20147;-65
2023/05/19 18:17:54;;;;;;;3.65;2.38;;;;;;;;;;9497974;30;20397;-65
2023/05/19 18:22:47;;;;;;;5.25;2.33;;;;;;;;;;9496498;30;20056;-65
2023/05/19 18:27:42;;;;;;;3.58;2.20;;;;;;;;;;9503167;30;20106;-65
2023/05/19 18:32:36;;;;;;;4.68;2.20;;;;;;;;;;9494672;29;20448;-64
2023/05/19 18:37:30;;;;;;;3.53;2.05;;;;;;;;;;9501719;30;20052;-64
2023/05/19 18:42:24;;;;;;;2.80;2.45;;;;;;;;;;9482925;30;20056;-64
2023/05/19 18:47:18;;;;;;;4.70;2.80;;;;;;;;;;9493082;30;20075;-64
2023/05/19 18:52:12;;;;;;;10.18;4.07;;;;;;;;;;9505066;30;20090;-64
2023/05/19 18:57:07;;;;;;;4.25;2.67;;;;;;;;;;9504736;30;20062;-64
2023/05/19 19:02:00;;;;;;;6.35;2.92;;;;;;;;;;9494592;30;20143;-64
2023/05/19 19:06:54;;;;;;;3.17;2.47;;;;;;;;;;9502199;30;20060;-64
2023/05/19 19:11:48;;;;;;;6.43;3.00;;;;;;;;;;9504705;30;20140;-64
2023/05/19 19:16:42;;;;;;;6.55;2.85;;;;;;;;;;9498858;30;20063;-64
2023/05/19 19:21:36;;;;;;;5.75;2.85;;;;;;;;;;9498519;30;20084;-64
2023/05/19 19:26:30;;;;;;;6.28;2.60;;;;;;;;;;9492235;30;20048;-65
2023/05/19 19:31:26;;;;;;;6.22;3.30;;;;;;;;;;9497962;30;20068;-69
2023/05/19 19:36:19;;;;;;;5.57;3.45;;;;;;;;;;9492662;30;20052;-69
2023/05/19 19:41:13;;;;;;;12.48;3.15;;;;;;;;;;9495381;30;20060;-71
2023/05/19 19:46:07;;;;;;;6.20;3.88;;;;;;;;;;9483377;30;20530;-69
2023/05/19 19:51:01;;;;;;;4.57;2.83;;;;;;;;;;9491798;30;20055;-68
2023/05/19 19:56:01;;;;;;;3.25;2.90;;;;;;;;;;9495508;30;20059;-67
2023/05/19 20:00:55;;;;;;;4.50;3.22;;;;;;;;;;9499028;30;20408;-68
2023/05/19 20:05:49;;;;;;;5.82;3.33;;;;;;;;;;9496027;30;20060;-67
2023/05/19 20:10:44;;;;;;;6.85;3.53;;;;;;;;;;9496612;30;20060;-67
2023/05/19 20:15:39;;;;;;;5.75;3.33;;;;;;;;;;9495477;29;20122;-67
2023/05/19 20:20:33;;;;;;;8.85;4.32;;;;;;;;;;9494695;30;20075;-66
2023/05/19 20:25:27;;;;;;;3.60;3.25;;;;;;;;;;9497179;30;20052;-66
2023/05/19 20:30:20;;;;;;;7.45;3.00;;;;;;;;;;9501616;30;20067;-66
2023/05/19 20:35:15;;;;;;;5.57;3.25;;;;;;;;;;9499887;30;20063;-66
2023/05/19 20:40:11;;;;;;;8.27;3.28;;;;;;;;;;9498242;30;20531;-66
2023/05/19 20:45:06;;;;;;;7.28;3.28;;;;;;;;;;9500435;30;20136;-67
2023/05/19 20:49:59;;;;;;;4.00;3.42;;;;;;;;;;9503255;29;20098;-66
2023/05/19 20:54:53;;;;;;;10.13;3.22;;;;;;;;;;9497129;30;20049;-67
2023/05/19 20:59:47;;;;;;;8.25;3.13;;;;;;;;;;9495671;30;20515;-67
2023/05/19 21:04:41;;;;;;;5.57;3.25;;;;;;;;;;9502603;30;20086;-67
2023/05/19 21:09:35;;;;;;;6.80;3.30;;;;;;;;;;9499871;30;20052;-66
2023/05/19 21:14:28;;;;;;;5.53;3.67;;;;;;;;;;9499259;30;20504;-67
2023/05/19 21:19:22;;;;;;;7.60;3.30;;;;;;;;;;9506656;30;20140;-68
2023/05/19 21:24:16;;;;;;;10.25;3.15;;;;;;;;;;9506606;30;20454;-68
2023/05/19 21:29:10;;;;;;;18.88;5.53;;;;;;;;;;9505374;30;20067;-67
2023/05/19 21:34:06;;;;;;;12.80;3.47;;;;;;;;;;9479403;30;1271035;-67
2023/05/19 21:39:00;;;;;;;8.82;3.92;;;;;;;;;;9508293;30;20066;-67
2023/05/19 21:43:53;;;;;;;10.07;3.75;;;;;;;;;;9496522;30;20059;-68
2023/05/19 21:48:47;;;;;;;6.25;4.22;;;;;;;;;;9479277;30;20091;-68
2023/05/19 21:53:40;;;;;;;10.18;4.65;;;;;;;;;;9508342;30;20504;-68
2023/05/19 21:58:34;;;;;;;7.45;4.45;;;;;;;;;;9501585;30;20060;-67
2023/05/19 22:03:28;;;;;;;5.03;4.25;;;;;;;;;;9507202;30;20478;-68
2023/05/19 22:08:22;;;;;;;8.32;4.07;;;;;;;;;;9504505;30;20056;-69
2023/05/19 22:13:15;;;;;;;5.60;4.47;;;;;;;;;;9495132;30;20084;-68
2023/05/19 22:18:07;;;;;;;4.75;4.25;;;;;;;;;;9490665;30;20060;-68
2023/05/19 22:23:02;;;;;;;7.70;4.53;;;;;;;;;;9488987;30;20114;-67
2023/05/19 22:27:56;;;;;;;8.23;5.50;;;;;;;;;;9489568;30;20068;-67
2023/05/19 22:32:49;;;;;;;9.05;5.22;;;;;;;;;;9496434;30;20060;-65
2023/05/19 22:37:42;;;;;;;9.32;4.78;;;;;;;;;;9493443;30;20056;-66
2023/05/19 22:42:37;;;;;;;13.57;5.35;;;;;;;;;;9487313;30;20486;-66
2023/05/19 22:47:33;;;;;;;7.32;4.80;;;;;;;;;;9486220;30;20578;-67
2023/05/19 22:52:27;;;;;;;8.32;5.43;;;;;;;;;;9483846;30;20494;-65
2023/05/19 22:57:21;;;;;;;13.50;6.53;;;;;;;;;;9488620;30;20063;-65
2023/05/19 23:02:15;;;;;;;7.05;5.65;;;;;;;;;;9495613;30;20071;-66
2023/05/19 23:07:08;;;;;;;8.75;6.50;;;;;;;;;;9497961;30;20063;-65
2023/05/19 23:12:02;;;;;;;9.02;5.60;;;;;;;;;;9494647;30;20060;-65
2023/05/19 23:16:56;;;;;;;11.52;6.30;;;;;;;;;;9495653;30;20053;-65
2023/05/19 23:21:49;;;;;;;9.20;5.75;;;;;;;;;;9492227;30;20080;-65
2023/05/19 23:26:43;;;;;;;7.63;6.00;;;;;;;;;;9494420;30;20087;-65
2023/05/19 23:31:37;;;;;;;9.55;7.05;;;;;;;;;;9495286;30;20056;-66
2023/05/19 23:36:30;;;;;;;7.95;6.30;;;;;;;;;;9496362;30;20052;-66
2023/05/19 23:41:24;;;;;;;9.55;6.88;;;;;;;;;;9497089;30;20084;-66
2023/05/19 23:46:18;;;;;;;12.90;6.55;;;;;;;;;;9490914;30;20064;-66
2023/05/19 23:51:11;;;;;;;8.23;7.18;;;;;;;;;;9490203;30;20060;-66
2023/05/19 23:56:07;;;;;;;14.57;7.28;;;;;;;;;;9493889;30;20068;-66
